createdAt,value
2023-05-04T06:30:31.755Z,17.40
2023-05-04T06:33:01.039Z,17.70
2023-05-04T06:35:29.691Z,17.80
2023-05-04T06:37:57.548Z,17.80
2023-05-04T06:40:26.956Z,18.80
2023-05-04T06:42:55.007Z,18.50
2023-05-04T20:51:43.083Z,17.30
2023-05-04T20:54:11.628Z,17.20
2023-05-04T20:56:39.546Z,17.10
2023-05-04T20:59:08.796Z,17.00
2023-05-04T21:01:36.653Z,17.00
2023-05-04T21:04:04.594Z,16.90
2023-05-04T21:06:32.454Z,16.90
2023-05-04T21:09:01.909Z,16.90
2023-05-04T21:11:29.771Z,16.90
2023-05-04T21:13:57.617Z,17.00
2023-05-04T21:16:26.820Z,17.00
2023-05-04T21:18:54.675Z,17.00
2023-05-04T21:21:22.494Z,17.10
2023-05-04T21:23:50.301Z,17.00
2023-05-04T21:26:18.169Z,17.10
2023-05-04T21:28:46.410Z,17.10
2023-05-04T21:31:15.146Z,17.10
2023-05-04T21:33:44.435Z,17.10
2023-05-04T21:36:13.908Z,17.10
2023-05-04T21:38:42.838Z,17.10
2023-05-04T21:41:12.354Z,17.10
2023-05-04T21:43:40.363Z,17.20
2023-05-04T21:46:08.890Z,17.20
2023-05-04T21:48:37.136Z,17.20
2023-05-04T21:51:06.426Z,17.30
2023-05-04T21:53:34.362Z,17.30
2023-05-04T21:56:02.352Z,17.30
2023-05-04T21:58:30.208Z,17.30
2023-05-04T22:00:58.147Z,17.30
2023-05-04T22:03:26.337Z,17.40
2023-05-04T22:05:55.125Z,17.40
2023-05-04T22:08:24.469Z,17.40
2023-05-04T22:10:53.148Z,17.40
2023-05-04T22:13:21.248Z,17.40
2023-05-04T22:15:50.605Z,17.40
2023-05-04T22:18:18.944Z,17.40
2023-05-04T22:20:46.952Z,17.40
2023-05-04T22:23:15.048Z,17.50
2023-05-04T22:25:44.264Z,17.50
2023-05-04T22:28:12.114Z,17.50
2023-05-04T22:30:40.012Z,17.40
2023-05-04T22:33:08.143Z,17.50
2023-05-04T22:35:36.001Z,17.40
2023-05-04T22:38:04.944Z,17.40
2023-05-04T22:40:32.779Z,17.40
2023-05-04T22:43:01.949Z,17.40
2023-05-04T22:45:29.802Z,17.30
2023-05-04T22:47:57.842Z,17.30
2023-05-04T22:50:27.723Z,17.30
2023-05-04T22:52:55.665Z,17.20
2023-05-04T22:55:23.549Z,17.20
2023-05-04T22:57:51.419Z,17.20
2023-05-04T23:00:21.857Z,17.10
2023-05-04T23:02:49.821Z,17.10
2023-05-04T23:05:18.007Z,17.10
2023-05-04T23:07:45.830Z,17.00
2023-05-04T23:10:13.843Z,17.00
2023-05-04T23:12:41.694Z,16.90
2023-05-04T23:15:10.712Z,16.90
2023-05-04T23:17:40.513Z,16.80
2023-05-04T23:20:10.219Z,16.80
2023-05-04T23:22:38.717Z,16.80
2023-05-04T23:25:07.427Z,16.80
2023-05-04T23:27:35.242Z,16.80
2023-05-04T23:30:03.139Z,16.80
2023-05-04T23:32:31.305Z,16.80
2023-05-04T23:35:00.630Z,16.80
2023-05-04T23:37:31.501Z,16.70
2023-05-04T23:39:59.384Z,16.70
2023-05-04T23:42:27.395Z,16.60
2023-05-04T23:44:55.653Z,16.60
2023-05-04T23:47:23.494Z,16.50
2023-05-04T23:49:51.422Z,16.50
2023-05-04T23:52:20.642Z,16.50
2023-05-04T23:54:48.455Z,16.40
2023-05-04T23:57:16.316Z,16.40
2023-05-04T23:59:44.117Z,16.40
